createdAt,value
2019-06-11T00:01:07.633Z,101117.08
2019-06-11T00:03:32.857Z,101119.94
2019-06-11T00:06:01.614Z,101117.66
2019-06-11T00:08:30.371Z,101111.73
2019-06-11T00:10:59.650Z,101116.77
2019-06-11T00:13:27.603Z,101112.55
2019-06-11T00:15:55.888Z,101115.70
2019-06-11T00:18:23.637Z,101119.50
2019-06-11T00:20:52.561Z,101120.09
2019-06-11T00:23:22.290Z,101118.29
2019-06-11T00:25:52.327Z,101135.20
2019-06-11T00:28:22.167Z,101130.19
2019-06-11T00:30:49.546Z,101135.55
2019-06-11T00:33:17.237Z,101132.76
2019-06-11T00:35:45.122Z,101127.78
2019-06-11T00:38:13.205Z,101130.98
2019-06-11T00:40:43.089Z,101145.09
2019-06-11T00:43:12.535Z,101130.47
2019-06-11T00:45:40.712Z,101140.55
2019-06-11T00:48:08.884Z,101142.84
2019-06-11T00:50:36.692Z,101153.30
2019-06-11T00:53:05.433Z,101153.70
2019-06-11T00:55:33.939Z,101149.70
2019-06-11T00:58:03.991Z,101146.57
2019-06-11T01:00:32.983Z,101153.14
2019-06-11T01:03:03.973Z,101163.59
2019-06-11T01:05:32.481Z,101173.59
2019-06-11T01:08:01.151Z,101169.94
2019-06-11T01:10:32.072Z,101176.82
2019-06-11T01:13:01.166Z,101178.76
2019-06-11T01:15:29.198Z,101175.84
2019-06-11T01:17:56.996Z,101175.58
2019-06-11T01:20:24.807Z,101173.66
2019-06-11T01:22:53.151Z,101174.36
2019-06-11T01:25:23.484Z,101178.97
2019-06-11T01:27:52.748Z,101188.16
2019-06-11T01:30:22.970Z,101191.39
2019-06-11T01:32:59.402Z,101189.09
2019-06-11T01:35:20.069Z,101185.69
2019-06-11T01:37:47.763Z,101188.33
2019-06-11T01:40:16.543Z,101177.42
2019-06-11T01:42:44.558Z,101178.96
2019-06-11T01:45:13.662Z,101187.81
2019-06-11T01:47:42.167Z,101193.16
2019-06-11T01:50:12.018Z,101196.66
2019-06-11T01:52:39.529Z,101198.36
2019-06-11T01:55:07.927Z,101201.16
2019-06-11T01:57:35.810Z,101199.11
2019-06-11T02:00:13.506Z,101208.27
2019-06-11T02:02:34.753Z,101207.34
2019-06-11T02:05:04.038Z,101208.25
2019-06-11T02:07:33.012Z,101202.02
2019-06-11T02:10:03.290Z,101197.05
2019-06-11T02:12:32.816Z,101192.84
2019-06-11T02:15:02.518Z,101192.72
2019-06-11T02:17:32.512Z,101195.08
2019-06-11T02:20:02.841Z,101198.73
2019-06-11T02:22:29.746Z,101198.09
2019-06-11T02:24:57.449Z,101196.21
2019-06-11T02:27:25.228Z,101193.42
2019-06-11T02:29:55.588Z,101184.30
2019-06-11T02:32:29.522Z,101195.59
2019-06-11T02:35:07.399Z,101193.27
2019-06-11T02:37:28.942Z,101189.22
2019-06-11T02:39:54.149Z,101192.22
2019-06-11T02:42:27.538Z,101186.95
2019-06-11T02:44:53.379Z,101183.48
2019-06-11T02:47:28.416Z,101178.48
2019-06-11T02:49:52.026Z,101181.22
2019-06-11T02:52:27.513Z,101183.66
2019-06-11T02:54:52.372Z,101194.21
2019-06-11T02:57:24.279Z,101185.06
2019-06-11T02:59:51.528Z,101184.88
2019-06-11T03:02:25.925Z,101182.90
2019-06-11T03:04:59.198Z,101194.97
2019-06-11T03:07:23.097Z,101194.85
2019-06-11T03:09:52.239Z,101204.36
2019-06-11T03:12:26.791Z,101202.84
2019-06-11T03:14:51.962Z,101206.71
2019-06-11T03:17:28.787Z,101204.05
2019-06-11T03:19:53.315Z,101199.36
2019-06-11T03:22:27.590Z,101198.33
2019-06-11T03:24:51.709Z,101206.52
2019-06-11T03:27:26.658Z,101200.87
2019-06-11T03:29:52.202Z,101200.77
2019-06-11T03:33:20.477Z,101194.41
2019-06-11T03:37:54.158Z,101198.36
2019-06-11T03:39:56.532Z,101198.25
2019-06-11T03:42:22.368Z,101184.17
2019-06-11T03:44:47.676Z,101187.34
2019-06-11T03:47:18.980Z,101186.02
2019-06-11T03:49:45.202Z,101195.58
2019-06-11T03:52:14.436Z,101198.45
2019-06-11T03:54:42.619Z,101202.44
2019-06-11T03:57:11.976Z,101203.45
2019-06-11T03:59:41.813Z,101204.42
2019-06-11T04:02:12.281Z,101199.50
2019-06-11T04:04:41.656Z,101199.81
2019-06-11T04:07:20.949Z,101198.48
2019-06-11T04:09:41.318Z,101191.62
2019-06-11T04:12:11.479Z,101200.99
2019-06-11T04:14:41.220Z,101205.00
2019-06-11T04:17:18.974Z,101202.16
2019-06-11T04:19:41.110Z,101208.94
2019-06-11T04:22:11.250Z,101206.81
2019-06-11T04:24:37.529Z,101211.01
2019-06-11T04:27:05.227Z,101213.94
2019-06-11T04:29:35.788Z,101221.79
2019-06-11T04:32:02.682Z,101218.18
2019-06-11T04:34:36.338Z,101224.39
2019-06-11T04:37:19.622Z,101219.75
2019-06-11T04:39:32.628Z,101228.66
2019-06-11T04:42:02.571Z,101225.41
2019-06-11T04:44:34.896Z,101228.76
2019-06-11T04:47:02.109Z,101233.87
2019-06-11T04:49:37.493Z,101246.75
2019-06-11T04:52:01.847Z,101244.78
2019-06-11T04:54:36.143Z,101243.22
2019-06-11T04:57:02.741Z,101244.00
2019-06-11T04:59:36.952Z,101249.03
2019-06-11T05:07:01.154Z,101243.77
2019-06-11T05:09:37.288Z,101241.48
2019-06-11T05:12:02.322Z,101252.72
2019-06-11T05:14:45.455Z,101249.57
2019-06-11T05:17:01.082Z,101252.52
2019-06-11T05:19:38.119Z,101252.03
2019-06-11T05:21:57.548Z,101255.36
2019-06-11T05:24:30.848Z,101263.03
2019-06-11T05:26:55.271Z,101257.64
2019-06-11T05:29:27.243Z,101261.70
2019-06-11T05:31:52.734Z,101265.07
2019-06-11T05:34:24.020Z,101266.42
2019-06-11T05:36:51.820Z,101263.98
2019-06-11T05:39:24.327Z,101259.26
2019-06-11T05:41:50.749Z,101265.49
2019-06-11T05:44:21.755Z,101268.77
2019-06-11T05:46:52.001Z,101268.42
2019-06-11T05:49:20.613Z,101270.41
2019-06-11T05:51:50.945Z,101279.40
2019-06-11T05:54:20.596Z,101265.78
2019-06-11T05:56:50.433Z,101264.05
2019-06-11T05:59:17.604Z,101260.52
2019-06-11T06:01:54.199Z,101256.00
2019-06-11T06:04:15.061Z,101265.33
2019-06-11T06:06:42.926Z,101267.96
2019-06-11T06:09:10.929Z,101265.10
2019-06-11T06:11:40.618Z,101269.73
2019-06-11T06:14:10.569Z,101270.39
2019-06-11T06:16:39.563Z,101273.58
2019-06-11T06:19:07.919Z,101282.41
2019-06-11T06:21:35.635Z,101277.08
2019-06-11T06:24:03.351Z,101272.39
2019-06-11T06:26:34.242Z,101272.22
2019-06-11T06:29:00.852Z,101266.86
2019-06-11T06:31:30.752Z,101269.88
2019-06-11T06:34:00.147Z,101278.22
2019-06-11T06:36:30.487Z,101284.41
2019-06-11T06:38:57.746Z,101293.69
2019-06-11T06:41:25.446Z,101294.02
2019-06-11T06:43:53.429Z,101297.03
2019-06-11T06:46:21.474Z,101295.69
2019-06-11T06:48:50.331Z,101296.83
2019-06-11T06:51:20.634Z,101306.87
2019-06-11T06:53:50.465Z,101308.64
2019-06-11T06:56:20.075Z,101301.45
2019-06-11T06:58:47.553Z,101291.02
2019-06-11T07:01:18.331Z,101290.78
2019-06-11T07:03:45.204Z,101294.45
2019-06-11T07:06:12.925Z,101291.81
2019-06-11T07:09:00.296Z,101294.27
2019-06-11T07:11:10.816Z,101290.57
2019-06-11T07:13:39.972Z,101287.70
2019-06-11T07:16:11.128Z,101283.99
2019-06-11T07:18:44.312Z,101289.94
2019-06-11T07:21:07.877Z,101293.66
2019-06-11T07:23:41.374Z,101281.98
2019-06-11T07:26:06.723Z,101284.31
2019-06-11T07:28:37.493Z,101282.20
2019-06-11T07:31:04.079Z,101286.88
2019-06-11T07:33:35.721Z,101282.14
2019-06-11T07:36:02.123Z,101287.28
2019-06-11T07:38:35.062Z,101281.89
2019-06-11T07:41:01.678Z,101274.42
2019-06-11T07:43:34.496Z,101273.58
2019-06-11T07:46:01.080Z,101279.30
2019-06-11T07:48:37.712Z,101287.45
2019-06-11T07:51:01.439Z,101277.08
2019-06-11T07:53:33.645Z,101282.54
2019-06-11T07:56:02.981Z,101285.23
2019-06-11T07:58:32.582Z,101281.24
2019-06-11T08:01:03.353Z,101272.64
2019-06-11T08:03:32.156Z,101273.58
2019-06-11T08:06:02.169Z,101271.38
2019-06-11T08:08:32.580Z,101270.06
2019-06-11T08:11:04.463Z,101265.75
2019-06-11T08:13:36.766Z,101252.98
2019-06-11T08:16:05.540Z,101270.94
2019-06-11T08:18:34.092Z,101275.62
2019-06-11T08:21:23.358Z,101279.59
2019-06-11T08:23:33.297Z,101275.27
2019-06-11T08:27:16.536Z,101272.59
2019-06-11T08:28:33.704Z,101266.55
2019-06-11T08:31:01.753Z,101268.23
2019-06-11T08:33:31.343Z,101269.26
2019-06-11T08:36:01.435Z,101272.17
2019-06-11T08:38:30.972Z,101285.41
2019-06-11T08:41:00.390Z,101281.39
2019-06-11T08:43:30.313Z,101281.22
2019-06-11T08:45:58.011Z,101270.25
2019-06-11T08:48:25.807Z,101273.16
2019-06-11T08:50:53.555Z,101284.84
2019-06-11T08:53:24.665Z,101272.47
2019-06-11T08:55:51.112Z,101268.33
2019-06-11T08:58:21.967Z,101271.64
2019-06-11T09:01:02.445Z,101268.73
2019-06-11T09:03:21.123Z,101266.45
2019-06-11T09:05:53.609Z,101270.35
2019-06-11T09:08:20.388Z,101270.58
2019-06-11T09:10:49.223Z,101274.12
2019-06-11T09:13:17.853Z,101271.42
2019-06-11T09:15:48.785Z,101268.70
2019-06-11T09:18:15.323Z,101279.06
2019-06-11T09:20:46.413Z,101284.79
2019-06-11T09:23:12.751Z,101289.70
2019-06-11T09:25:44.270Z,101281.02
2019-06-11T09:28:10.924Z,101289.61
2019-06-11T09:30:41.702Z,101292.50
2019-06-11T09:33:13.444Z,101292.23
2019-06-11T09:35:42.452Z,101298.41
2019-06-11T09:38:10.814Z,101284.84
2019-06-11T09:40:50.661Z,101281.55
2019-06-11T09:43:11.349Z,101280.89
2019-06-11T09:45:41.239Z,101280.89
2019-06-11T09:48:07.833Z,101275.03
2019-06-11T09:50:35.534Z,101262.36
2019-06-11T09:53:03.399Z,101265.94
2019-06-11T09:55:31.280Z,101269.70
2019-06-11T09:58:03.656Z,101267.73
2019-06-11T10:00:30.356Z,101270.52
2019-06-11T10:03:00.354Z,101274.84
2019-06-11T10:05:27.875Z,101262.89
2019-06-11T10:07:55.595Z,101268.93
2019-06-11T10:10:37.338Z,101268.30
2019-06-11T10:12:54.679Z,101275.56
2019-06-11T10:15:24.592Z,101277.13
2019-06-11T10:17:52.884Z,101272.45
2019-06-11T10:20:20.929Z,101270.53
2019-06-11T10:22:53.356Z,101271.89
2019-06-11T10:25:20.780Z,101269.11
2019-06-11T10:27:50.311Z,101273.29
2019-06-11T10:30:17.897Z,101286.52
2019-06-11T10:32:45.838Z,101280.16
2019-06-11T10:35:14.219Z,101284.02
2019-06-11T10:37:41.949Z,101279.15
2019-06-11T10:40:11.030Z,101270.61
2019-06-11T10:42:41.949Z,101255.49
2019-06-11T10:45:10.658Z,101257.86
2019-06-11T10:47:40.445Z,101258.14
2019-06-11T10:50:10.274Z,101267.17
2019-06-11T10:52:38.250Z,101274.63
2019-06-11T10:55:06.571Z,101280.22
2019-06-11T10:57:34.263Z,101282.48
2019-06-11T11:00:10.721Z,101287.97
2019-06-11T11:02:31.692Z,101291.89
2019-06-11T11:05:04.420Z,101285.73
2019-06-11T11:07:30.691Z,101281.67
2019-06-11T11:10:00.880Z,101284.02
2019-06-11T11:12:28.691Z,101292.22
2019-06-11T11:14:56.783Z,101295.23
2019-06-11T11:17:24.808Z,101294.75
2019-06-11T11:19:55.503Z,101280.79
2019-06-11T11:22:22.125Z,101294.45
2019-06-11T11:24:52.559Z,101302.77
2019-06-11T11:27:20.671Z,101295.33
2019-06-11T11:29:50.626Z,101297.63
2019-06-11T11:32:20.563Z,101298.63
2019-06-11T11:34:48.849Z,101301.48
2019-06-11T11:37:17.356Z,101303.21
2019-06-11T11:39:46.510Z,101305.71
2019-06-11T11:42:29.483Z,101308.71
2019-06-11T11:44:44.138Z,101308.09
2019-06-11T11:47:20.466Z,101307.19
2019-06-11T11:49:51.003Z,101309.19
2019-06-11T11:52:22.374Z,101305.23
2019-06-11T11:54:53.075Z,101313.34
2019-06-11T11:57:22.655Z,101313.93
2019-06-11T11:59:56.322Z,101312.63
2019-06-11T12:02:22.541Z,101319.52
2019-06-11T12:04:57.002Z,101328.52
2019-06-11T12:07:20.418Z,101327.50
2019-06-11T12:09:51.577Z,101323.25
2019-06-11T12:12:19.913Z,101304.62
2019-06-11T12:14:48.700Z,101299.23
2019-06-11T12:17:17.492Z,101303.32
2019-06-11T12:19:45.171Z,101296.20
2019-06-11T12:22:13.020Z,101301.59
2019-06-11T12:24:45.103Z,101298.44
2019-06-11T12:27:11.357Z,101297.79
2019-06-11T12:29:40.299Z,101294.45
2019-06-11T12:32:11.759Z,101300.17
2019-06-11T12:34:40.294Z,101310.41
2019-06-11T12:37:07.791Z,101306.45
2019-06-11T12:39:35.755Z,101308.38
2019-06-11T12:42:06.009Z,101313.07
2019-06-11T12:44:33.823Z,101307.83
2019-06-11T12:47:04.831Z,101303.11
2019-06-11T12:49:31.367Z,101306.47
2019-06-11T12:52:04.017Z,101306.81
2019-06-11T12:54:29.979Z,101301.86
2019-06-11T12:57:02.710Z,101297.03
2019-06-11T12:59:27.659Z,101296.23
2019-06-11T13:01:55.558Z,101295.97
2019-06-11T13:04:23.365Z,101294.19
2019-06-11T13:06:51.904Z,101291.70
2019-06-11T13:09:24.343Z,101293.27
2019-06-11T13:11:52.962Z,101294.64
2019-06-11T13:14:20.701Z,101300.76
2019-06-11T13:16:51.098Z,101291.79
2019-06-11T13:19:18.230Z,101283.44
2019-06-11T13:21:46.114Z,101284.75
2019-06-11T13:24:13.922Z,101281.11
2019-06-11T13:26:41.743Z,101287.16
2019-06-11T13:29:12.305Z,101290.34
2019-06-11T13:31:42.288Z,101295.67
2019-06-11T13:34:11.395Z,101303.59
2019-06-11T13:36:40.716Z,101309.34
2019-06-11T13:39:11.244Z,101323.16
2019-06-11T13:41:41.021Z,101323.09
2019-06-11T13:44:29.468Z,101324.33
2019-06-11T13:46:40.330Z,101325.45
2019-06-11T13:49:11.217Z,101330.11
2019-06-11T13:51:40.761Z,101337.04
2019-06-11T13:54:08.739Z,101334.83
2019-06-11T13:56:36.594Z,101331.36
2019-06-11T13:59:10.443Z,101323.57
2019-06-11T14:01:34.151Z,101313.70
2019-06-11T14:04:06.732Z,101299.69
2019-06-11T14:06:31.509Z,101293.41
2019-06-11T14:09:09.639Z,101290.02
2019-06-11T14:11:28.988Z,101285.59
2019-06-11T14:14:15.601Z,101291.20
2019-06-11T14:16:26.586Z,101311.36
2019-06-11T14:18:55.294Z,101316.49
2019-06-11T14:21:23.544Z,101317.01
2019-06-11T14:23:51.857Z,101324.91
2019-06-11T14:26:21.991Z,101327.13
2019-06-11T14:28:50.572Z,101331.06
2019-06-11T14:31:31.479Z,101335.95
2019-06-11T14:33:50.552Z,101320.23
2019-06-11T14:36:21.896Z,101306.40
2019-06-11T14:38:54.874Z,101299.14
2019-06-11T14:41:24.015Z,101290.34
2019-06-11T14:43:52.021Z,101273.04
2019-06-11T14:46:23.691Z,101268.01
2019-06-11T14:49:06.977Z,101265.94
2019-06-11T14:51:35.949Z,101266.00
2019-06-11T14:54:09.240Z,101277.18
2019-06-11T14:56:33.704Z,101283.53
2019-06-11T14:59:04.245Z,101272.09
2019-06-11T15:01:31.281Z,101270.55
2019-06-11T15:04:01.704Z,101278.89
2019-06-11T15:06:29.106Z,101270.35
2019-06-11T15:08:57.593Z,101273.20
2019-06-11T15:11:25.544Z,101268.36
2019-06-11T15:13:57.945Z,101262.20
2019-06-11T15:16:26.049Z,101263.48
2019-06-11T15:18:53.868Z,101276.30
2019-06-11T15:21:21.947Z,101280.20
2019-06-11T15:23:52.208Z,101280.31
2019-06-11T15:26:20.442Z,101272.95
2019-06-11T15:28:48.265Z,101276.11
2019-06-11T15:31:16.205Z,101267.14
2019-06-11T15:33:43.992Z,101265.08
2019-06-11T15:36:15.495Z,101259.33
2019-06-11T15:38:41.858Z,101252.12
2019-06-11T15:41:13.455Z,101256.78
2019-06-11T15:43:39.410Z,101261.81
2019-06-11T15:46:08.996Z,101262.80
2019-06-11T15:48:36.957Z,101263.04
2019-06-11T15:51:09.111Z,101264.39
2019-06-11T15:53:36.862Z,101262.98
2019-06-11T15:56:11.154Z,101265.94
2019-06-11T15:58:36.833Z,101271.48
2019-06-11T16:01:08.416Z,101274.95
2019-06-11T16:03:34.496Z,101274.79
2019-06-11T16:06:06.915Z,101277.25
2019-06-11T16:08:32.226Z,101274.73
2019-06-11T16:11:00.216Z,101263.96
2019-06-11T16:13:30.351Z,101263.55
2019-06-11T16:16:06.115Z,101266.06
2019-06-11T16:18:30.749Z,101274.56
2019-06-11T16:21:00.404Z,101260.04
2019-06-11T16:23:30.735Z,101265.30
2019-06-11T16:26:00.612Z,101266.24
2019-06-11T16:28:30.234Z,101262.80
2019-06-11T16:30:57.603Z,101264.34
2019-06-11T16:33:31.007Z,101261.70
2019-06-11T16:35:59.458Z,101262.58
2019-06-11T16:38:27.501Z,101260.22
2019-06-11T16:40:55.590Z,101255.19
2019-06-11T16:43:23.670Z,101248.31
2019-06-11T16:46:00.637Z,101261.95
2019-06-11T16:48:21.128Z,101253.50
2019-06-11T16:50:50.800Z,101259.67
2019-06-11T16:53:21.488Z,101261.87
2019-06-11T16:55:50.877Z,101249.41
2019-06-11T16:58:21.667Z,101246.31
2019-06-11T17:00:47.994Z,101235.52
2019-06-11T17:03:18.869Z,101234.56
2019-06-11T17:05:45.529Z,101241.83
2019-06-11T17:08:17.077Z,101249.38
2019-06-11T17:10:50.144Z,101247.02
2019-06-11T17:13:18.837Z,101256.87
2019-06-11T17:15:47.103Z,101268.36
2019-06-11T17:18:16.934Z,101269.69
2019-06-11T17:20:44.525Z,101277.66
2019-06-11T17:23:14.127Z,101279.38
2019-06-11T17:25:42.056Z,101279.31
2019-06-11T17:28:11.407Z,101278.13
2019-06-11T17:30:39.559Z,101272.22
2019-06-11T17:33:07.443Z,101266.34
2019-06-11T17:35:35.305Z,101264.63
2019-06-11T17:38:03.154Z,101263.50
2019-06-11T17:40:31.463Z,101261.06
2019-06-11T17:43:00.760Z,101260.02
2019-06-11T17:45:32.936Z,101265.95
2019-06-11T17:48:00.895Z,101272.55
2019-06-11T17:50:32.996Z,101277.07
2019-06-11T17:52:57.697Z,101282.36
2019-06-11T17:55:26.988Z,101281.83
2019-06-11T17:57:54.886Z,101281.28
2019-06-11T18:00:35.482Z,101281.85
2019-06-11T18:03:05.485Z,101283.91
2019-06-11T18:05:34.846Z,101271.45
2019-06-11T18:08:03.434Z,101273.16
2019-06-11T18:10:31.352Z,101281.94
2019-06-11T18:13:00.433Z,101286.60
2019-06-11T18:15:30.025Z,101282.06
2019-06-11T18:18:00.991Z,101279.41
2019-06-11T18:20:32.034Z,101281.94
2019-06-11T18:23:00.494Z,101273.26
2019-06-11T18:25:30.291Z,101268.01
2019-06-11T18:27:57.779Z,101271.80
2019-06-11T18:30:30.248Z,101268.52
2019-06-11T18:32:55.284Z,101272.38
2019-06-11T18:35:27.481Z,101265.34
2019-06-11T18:37:52.599Z,101255.55
2019-06-11T18:40:21.727Z,101262.09
2019-06-11T18:42:51.290Z,101251.43
2019-06-11T18:45:22.529Z,101254.84
2019-06-11T18:47:50.929Z,101264.16
2019-06-11T18:50:21.886Z,101270.38
2019-06-11T18:52:51.549Z,101266.35
2019-06-11T18:55:21.961Z,101261.34
2019-06-11T18:57:50.152Z,101271.45
2019-06-11T19:00:23.685Z,101276.20
2019-06-11T19:02:50.638Z,101272.62
2019-06-11T19:05:21.872Z,101282.85
2019-06-11T19:07:48.205Z,101279.38
2019-06-11T19:10:16.511Z,101272.50
2019-06-11T19:12:44.350Z,101275.03
2019-06-11T19:15:12.391Z,101273.64
2019-06-11T19:17:47.227Z,101267.55
2019-06-11T19:20:14.129Z,101280.16
2019-06-11T19:22:39.898Z,101280.11
2019-06-11T19:25:11.136Z,101279.97
2019-06-11T19:27:42.307Z,101283.23
2019-06-11T19:30:10.219Z,101280.84
2019-06-11T19:32:40.296Z,101287.41
2019-06-11T19:35:11.005Z,101278.09
2019-06-11T19:37:40.922Z,101282.39
2019-06-11T19:40:09.380Z,101295.65
2019-06-11T19:42:40.857Z,101278.05
2019-06-11T19:45:11.029Z,101277.11
2019-06-11T19:47:52.244Z,101283.26
2019-06-11T19:50:10.784Z,101280.59
2019-06-11T19:52:40.851Z,101280.20
2019-06-11T19:55:12.554Z,101281.53
2019-06-11T19:57:38.448Z,101285.41
2019-06-11T20:00:07.429Z,101291.22
2019-06-11T20:02:37.500Z,101296.03
2019-06-11T20:05:05.719Z,101302.77
2019-06-11T20:07:36.092Z,101300.81
2019-06-11T20:10:04.789Z,101296.54
2019-06-11T20:12:34.565Z,101286.12
2019-06-11T20:15:02.436Z,101276.97
2019-06-11T20:17:30.473Z,101278.56
2019-06-11T20:20:00.369Z,101276.17
2019-06-11T20:22:31.064Z,101277.38
2019-06-11T20:25:00.480Z,101280.91
2019-06-11T20:27:29.588Z,101282.25
2019-06-11T20:30:00.645Z,101282.59
2019-06-11T20:32:27.874Z,101273.23
2019-06-11T20:34:55.701Z,101275.99
2019-06-11T20:37:23.549Z,101275.64
2019-06-11T20:39:51.365Z,101279.01
2019-06-11T20:42:25.498Z,101278.04
2019-06-11T20:44:50.183Z,101275.15
2019-06-11T20:47:18.342Z,101258.84
2019-06-11T20:49:46.485Z,101260.30
2019-06-11T20:52:14.248Z,101263.41
2019-06-11T20:54:42.497Z,101267.87
2019-06-11T20:57:10.900Z,101264.98
2019-06-11T20:59:42.813Z,101280.14
2019-06-11T21:02:11.552Z,101284.73
2019-06-11T21:04:41.654Z,101275.84
2019-06-11T21:07:10.283Z,101273.64
2019-06-11T21:09:39.462Z,101274.14
2019-06-11T21:12:10.392Z,101261.25
2019-06-11T21:14:37.923Z,101268.84
2019-06-11T21:17:06.273Z,101268.00
2019-06-11T21:19:34.452Z,101262.33
2019-06-11T21:22:02.584Z,101255.66
2019-06-11T21:24:31.108Z,101253.83
2019-06-11T21:27:10.855Z,101259.77
2019-06-11T21:29:44.576Z,101258.72
2019-06-11T21:32:11.578Z,101261.63
2019-06-11T21:34:38.706Z,101263.36
2019-06-11T21:37:07.767Z,101254.83
2019-06-11T21:39:36.475Z,101259.43
2019-06-11T21:42:04.468Z,101253.37
2019-06-11T21:44:32.168Z,101264.81
2019-06-11T21:47:02.904Z,101266.06
2019-06-11T21:49:31.085Z,101263.41
2019-06-11T21:52:01.654Z,101249.78
2019-06-11T21:54:28.910Z,101241.70
2019-06-11T21:56:56.653Z,101243.16
2019-06-11T21:59:25.483Z,101247.63
2019-06-11T22:01:53.601Z,101257.03
2019-06-11T22:04:21.305Z,101251.94
2019-06-11T22:06:51.361Z,101237.85
2019-06-11T22:09:20.244Z,101240.87
2019-06-11T22:11:49.581Z,101236.64
2019-06-11T22:14:20.243Z,101221.45
2019-06-11T22:16:47.897Z,101225.43
2019-06-11T22:19:19.257Z,101227.00
2019-06-11T22:21:47.774Z,101234.25
2019-06-11T22:24:15.985Z,101230.02
2019-06-11T22:26:45.698Z,101221.20
2019-06-11T22:29:13.597Z,101221.56
2019-06-11T22:31:41.863Z,101219.60
2019-06-11T22:34:11.141Z,101220.44
2019-06-11T22:36:41.047Z,101214.31
2019-06-11T22:39:11.561Z,101210.60
2019-06-11T22:41:41.389Z,101202.15
2019-06-11T22:44:12.081Z,101204.09
2019-06-11T22:46:41.831Z,101202.40
2019-06-11T22:49:11.026Z,101198.92
2019-06-11T22:51:42.593Z,101200.00
2019-06-11T22:54:10.778Z,101195.77
2019-06-11T22:56:41.347Z,101196.52
2019-06-11T22:59:10.917Z,101192.42
2019-06-11T23:01:38.118Z,101192.41
2019-06-11T23:04:05.982Z,101204.79
2019-06-11T23:06:33.922Z,101197.92
2019-06-11T23:09:01.668Z,101198.61
2019-06-11T23:11:30.811Z,101201.82
2019-06-11T23:13:59.914Z,101197.06
2019-06-11T23:16:28.593Z,101190.32
2019-06-11T23:18:56.645Z,101195.98
2019-06-11T23:21:25.139Z,101193.92
2019-06-11T23:23:53.191Z,101204.11
2019-06-11T23:26:21.117Z,101204.16
2019-06-11T23:28:51.550Z,101206.55
2019-06-11T23:31:20.567Z,101206.22
2019-06-11T23:33:50.779Z,101211.50
2019-06-11T23:36:20.103Z,101220.55
2019-06-11T23:38:50.951Z,101217.09
2019-06-11T23:41:19.898Z,101215.63
2019-06-11T23:43:48.622Z,101218.34
2019-06-11T23:46:16.400Z,101215.63
2019-06-11T23:48:44.665Z,101217.20
2019-06-11T23:51:12.444Z,101217.21
2019-06-11T23:53:40.439Z,101223.84
2019-06-11T23:56:10.523Z,101232.49
2019-06-11T23:58:40.487Z,101236.26
